Juneau International Airport Juneau US
ICAO: PAJN
IATA: JNU
Category: Medium
Scheduled Services:

Elevation: 21 ft
TransAlt. 18000 ft.

Airport Communications:
ATIS:135.2
TWEB:114
ANCHORAGE CNTR:133.9
CTAF:118.7
RDO:122.2
GND:121.9
RDO:122.15
NAT GD OPS:124.65
TWR:118.7
UNICOM:122.95

PAJN Zoom In..

If you have problems with the map follow the link
https://www.worldairports.se/pages/airport.php?
ICAO=PAJN

Runways:

(A) RW 08 length 8457 ft width 150 ft
---- / hdg 85

(B) RW 26 length 8457 ft width 150 ft
---- / hdg 265

Location; PAJN
Day. 22 / Time. 16.53 Zulu
* Altimeter: 29.85
* Temperature: -03° c. -26.6°f.
* Wind from: 290° Speed 08 kn.
Dewpoint: -06° c.
Visibility: 10 Statute Miles.
Clouds: Few 1200 ft.
Clouds: Scattered 8500 ft.
Clouds: Broken 12000 ft.
Clouds: Broken 17000 ft.

PAJN 221653Z 29008KT 10SM FEW012 SCT085 BKN120 BKN170 M03/M06 A2985 RMK AO2 SLP107 T10281056


Wind From 290°
Speed 08 kn.

 
 
jpsmedia.com for Web Design worldairports.se 2019   terms of use